createdAt,value
2022-08-23T00:01:21.230Z,19.05
2022-08-23T00:03:47.892Z,19.04
2022-08-23T00:06:12.870Z,19.03
2022-08-23T00:08:36.905Z,19.05
2022-08-23T00:11:00.843Z,19.11
2022-08-23T00:13:24.723Z,19.04
2022-08-23T00:16:09.879Z,18.99
2022-08-23T00:18:33.492Z,19.10
2022-08-23T00:20:57.201Z,19.06
2022-08-23T00:23:21.209Z,18.97
2022-08-23T00:25:45.428Z,19.04
2022-08-23T00:28:11.442Z,18.89
2022-08-23T00:30:39.098Z,18.99
2022-08-23T00:33:04.159Z,18.94
2022-08-23T00:35:28.653Z,18.97
2022-08-23T00:38:32.322Z,18.72
2022-08-23T00:40:36.045Z,18.78
2022-08-23T00:43:26.112Z,18.84
2022-08-23T00:46:16.547Z,18.94
2022-08-23T00:48:42.355Z,18.94
2022-08-23T00:51:12.892Z,18.97
2022-08-23T00:53:42.172Z,18.96
2022-08-23T00:56:12.214Z,18.98
2022-08-23T00:58:37.543Z,18.93
2022-08-23T01:01:04.472Z,18.99
2022-08-23T01:03:38.821Z,18.97
2022-08-23T01:06:13.068Z,18.98
2022-08-23T01:08:38.387Z,18.99
2022-08-23T01:11:09.643Z,18.85
2022-08-23T01:13:41.047Z,18.85
2022-08-23T01:16:11.553Z,18.39
2022-08-23T01:18:35.714Z,18.53
2022-08-23T01:21:10.767Z,18.68
2022-08-23T01:23:43.239Z,18.60
2022-08-23T01:26:09.079Z,18.58
2022-08-23T01:28:35.092Z,18.61
2022-08-23T01:30:58.873Z,18.56
2022-08-23T01:33:22.879Z,18.58
2022-08-23T01:35:53.527Z,18.73
2022-08-23T01:38:18.163Z,18.59
2022-08-23T01:40:44.927Z,18.65
2022-08-23T01:43:10.111Z,18.63
2022-08-23T01:45:35.127Z,18.65
2022-08-23T01:47:59.257Z,18.72
2022-08-23T01:50:23.704Z,18.71
2022-08-23T01:52:47.594Z,18.73
2022-08-23T01:55:13.858Z,18.59
2022-08-23T01:57:39.079Z,18.72
2022-08-23T02:00:07.875Z,18.68
2022-08-23T02:02:37.432Z,18.68
2022-08-23T02:05:01.319Z,18.76
2022-08-23T02:07:28.905Z,18.72
2022-08-23T02:09:53.265Z,18.61
2022-08-23T02:12:17.583Z,18.50
2022-08-23T02:14:43.723Z,18.59
2022-08-23T02:17:16.171Z,18.71
2022-08-23T02:19:41.216Z,18.69
2022-08-23T02:22:07.471Z,18.88
2022-08-23T02:24:32.235Z,18.70
2022-08-23T02:26:59.506Z,18.72
2022-08-23T02:29:29.726Z,18.69
2022-08-23T02:31:55.683Z,18.65
2022-08-23T02:34:20.694Z,18.73
2022-08-23T02:36:46.096Z,18.72
2022-08-23T02:39:10.931Z,18.81
2022-08-23T02:41:36.178Z,18.80
2022-08-23T02:44:00.468Z,18.82
2022-08-23T02:46:24.920Z,18.75
2022-08-23T02:48:51.047Z,18.80
2022-08-23T02:51:14.745Z,18.77
2022-08-23T02:53:39.303Z,18.71
2022-08-23T02:56:12.951Z,18.73
2022-08-23T02:58:46.586Z,18.60
2022-08-23T03:01:19.270Z,18.67
2022-08-23T03:03:43.507Z,18.66
2022-08-23T03:06:25.487Z,18.72
2022-08-23T03:08:49.916Z,18.48
2022-08-23T03:11:15.684Z,18.58
2022-08-23T03:13:41.637Z,18.35
2022-08-23T03:16:06.125Z,18.48
2022-08-23T03:18:30.030Z,18.42
2022-08-23T03:20:56.623Z,18.55
2022-08-23T03:23:21.930Z,18.44
2022-08-23T03:25:45.975Z,18.45
2022-08-23T03:28:21.483Z,18.35
2022-08-23T03:30:45.634Z,18.56
2022-08-23T03:33:10.314Z,18.49
2022-08-23T03:35:34.309Z,18.55
2022-08-23T03:38:00.695Z,18.58
2022-08-23T03:40:26.671Z,18.44
2022-08-23T03:42:50.691Z,18.52
2022-08-23T03:45:16.598Z,18.49
2022-08-23T03:47:41.024Z,18.60
2022-08-23T03:50:05.689Z,18.58
2022-08-23T03:52:30.527Z,18.35
2022-08-23T03:54:55.124Z,18.40
2022-08-23T03:57:20.327Z,18.53
2022-08-23T03:59:44.159Z,18.57
2022-08-23T04:02:09.115Z,18.26
2022-08-23T04:04:33.511Z,18.12
2022-08-23T04:07:20.795Z,18.13
2022-08-23T04:09:50.913Z,17.92
2022-08-23T04:12:20.450Z,18.10
2022-08-23T04:14:45.578Z,17.89
2022-08-23T04:17:10.473Z,18.07
2022-08-23T04:19:34.380Z,18.17
2022-08-23T04:22:00.976Z,18.02
2022-08-23T04:24:31.747Z,18.19
2022-08-23T04:26:55.576Z,18.12
2022-08-23T04:29:31.446Z,18.32
2022-08-23T04:31:58.255Z,18.21
2022-08-23T04:34:22.060Z,18.39
2022-08-23T04:36:55.218Z,18.15
2022-08-23T04:39:19.476Z,18.38
2022-08-23T04:42:01.276Z,18.40
2022-08-23T04:44:26.543Z,18.26
2022-08-23T04:46:51.008Z,18.34
2022-08-23T04:49:14.788Z,18.40
2022-08-23T04:51:38.627Z,18.33
2022-08-23T04:54:03.158Z,18.33
2022-08-23T04:56:45.592Z,18.14
2022-08-23T04:59:16.791Z,18.36
2022-08-23T05:01:44.243Z,18.42
2022-08-23T05:04:10.775Z,18.43
2022-08-23T05:06:36.391Z,18.24
2022-08-23T05:09:02.312Z,18.42
2022-08-23T05:11:28.111Z,18.53
2022-08-23T05:13:52.186Z,18.57
2022-08-23T05:16:17.883Z,18.52
2022-08-23T05:18:54.313Z,18.58
2022-08-23T05:21:20.251Z,18.67
2022-08-23T05:23:44.557Z,18.73
2022-08-23T05:26:17.272Z,18.80
2022-08-23T05:28:44.580Z,18.82
2022-08-23T05:31:13.069Z,18.47
2022-08-23T05:33:42.841Z,18.62
2022-08-23T05:36:10.419Z,18.60
2022-08-23T05:38:35.104Z,18.60
2022-08-23T05:41:02.136Z,18.61
2022-08-23T05:43:30.706Z,18.69
2022-08-23T05:46:03.729Z,18.52
2022-08-23T05:48:30.293Z,18.68
2022-08-23T05:50:57.675Z,18.57
2022-08-23T05:53:22.800Z,18.85
2022-08-23T05:55:46.882Z,18.91
2022-08-23T05:58:15.230Z,18.94
2022-08-23T06:00:40.722Z,18.99
2022-08-23T06:03:06.083Z,19.05
2022-08-23T06:05:30.785Z,19.08
2022-08-23T06:07:56.255Z,19.00
2022-08-23T06:10:22.946Z,19.21
2022-08-23T06:12:55.547Z,19.11
2022-08-23T06:15:19.543Z,19.25
2022-08-23T06:17:43.295Z,19.55
2022-08-23T06:20:08.739Z,19.67
2022-08-23T06:22:53.386Z,19.74
2022-08-23T06:25:17.247Z,19.46
2022-08-23T06:27:50.315Z,19.72
2022-08-23T06:30:15.141Z,19.86
2022-08-23T06:32:38.819Z,19.88
2022-08-23T06:35:41.651Z,19.91
2022-08-23T06:38:15.099Z,19.99
2022-08-23T06:41:02.790Z,19.99
2022-08-23T06:43:39.252Z,20.09
2022-08-23T06:46:20.077Z,19.83
2022-08-23T06:48:48.699Z,20.24
2022-08-23T06:51:15.207Z,20.24
2022-08-23T06:53:55.029Z,20.04
2022-08-23T06:56:40.007Z,20.31
2022-08-23T06:59:12.256Z,20.18
2022-08-23T07:01:57.753Z,20.52
2022-08-23T07:04:30.183Z,20.11
2022-08-23T07:07:10.749Z,20.11
2022-08-23T07:09:35.485Z,20.26
2022-08-23T07:12:00.788Z,20.43
2022-08-23T07:14:26.914Z,20.53
2022-08-23T07:16:56.185Z,20.32
2022-08-23T07:19:22.839Z,20.78
2022-08-23T07:21:53.164Z,20.88
2022-08-23T07:24:18.722Z,20.85
2022-08-23T07:26:44.527Z,20.77
2022-08-23T07:29:11.467Z,20.90
2022-08-23T07:31:43.979Z,21.10
2022-08-23T07:34:10.385Z,20.97
2022-08-23T07:36:37.684Z,21.38
2022-08-23T07:39:02.137Z,21.49
2022-08-23T07:41:32.909Z,21.17
2022-08-23T07:43:58.233Z,21.30
2022-08-23T07:46:22.014Z,21.28
2022-08-23T07:48:54.213Z,21.52
2022-08-23T07:51:26.757Z,21.74
2022-08-23T07:53:50.521Z,21.65
2022-08-23T07:56:18.687Z,21.87
2022-08-23T07:59:01.486Z,21.92
2022-08-23T08:01:35.304Z,22.16
2022-08-23T08:04:03.627Z,21.76
2022-08-23T08:06:33.988Z,22.09
2022-08-23T08:08:58.738Z,22.06
2022-08-23T08:11:29.705Z,21.88
2022-08-23T08:13:59.052Z,22.01
2022-08-23T08:16:27.969Z,22.23
2022-08-23T08:18:53.248Z,22.36
2022-08-23T08:21:51.357Z,22.61
2022-08-23T08:24:41.416Z,22.52
2022-08-23T08:27:09.397Z,22.46
2022-08-23T08:29:33.520Z,22.09
2022-08-23T08:31:57.573Z,22.73
2022-08-23T08:34:21.451Z,22.75
2022-08-23T08:36:50.217Z,22.97
2022-08-23T08:39:19.864Z,22.62
2022-08-23T08:42:04.619Z,22.29
2022-08-23T08:44:40.087Z,22.61
2022-08-23T08:47:11.923Z,22.86
2022-08-23T08:49:43.436Z,23.09
2022-08-23T08:52:18.670Z,23.34
2022-08-23T08:54:48.037Z,23.11
2022-08-23T08:57:15.718Z,23.27
2022-08-23T08:59:52.251Z,23.58
2022-08-23T09:02:31.883Z,23.92
2022-08-23T09:05:02.646Z,23.92
2022-08-23T09:07:50.968Z,23.87
2022-08-23T09:10:33.683Z,23.78
2022-08-23T09:13:37.244Z,23.99
2022-08-23T09:16:13.354Z,23.97
2022-08-23T09:18:38.468Z,24.25
2022-08-23T09:21:02.993Z,23.90
2022-08-23T09:23:38.325Z,23.93
2022-08-23T09:26:19.370Z,24.09
2022-08-23T09:28:43.539Z,24.27
2022-08-23T09:31:08.462Z,23.79
2022-08-23T09:33:42.032Z,24.19
2022-08-23T09:36:23.939Z,23.68
2022-08-23T09:38:56.607Z,23.85
2022-08-23T09:41:27.760Z,23.97
2022-08-23T09:43:55.729Z,23.97
2022-08-23T09:46:28.271Z,24.24
2022-08-23T09:48:55.229Z,24.09
2022-08-23T09:51:30.328Z,24.22
2022-08-23T09:54:09.447Z,24.44
2022-08-23T09:56:38.809Z,24.55
2022-08-23T09:59:04.388Z,24.55
2022-08-23T10:01:40.142Z,25.12
2022-08-23T10:04:14.810Z,24.82
2022-08-23T10:06:41.039Z,25.02
2022-08-23T10:09:10.130Z,25.32
2022-08-23T10:11:42.673Z,24.95
2022-08-23T10:14:08.440Z,25.19
2022-08-23T10:16:43.768Z,25.39
2022-08-23T10:19:21.205Z,25.91
2022-08-23T10:21:57.440Z,26.13
2022-08-23T10:24:34.614Z,25.66
2022-08-23T10:27:40.051Z,25.88
2022-08-23T10:30:10.310Z,25.41
2022-08-23T10:32:53.630Z,25.38
2022-08-23T10:35:37.091Z,25.34
2022-08-23T10:38:42.145Z,25.36
2022-08-23T10:41:40.056Z,25.28
2022-08-23T10:44:24.835Z,25.29
2022-08-23T10:47:08.867Z,25.33
2022-08-23T10:49:37.819Z,25.59
2022-08-23T10:52:05.238Z,25.58
2022-08-23T10:54:46.043Z,25.93
2022-08-23T10:57:20.755Z,25.19
2022-08-23T10:59:47.021Z,25.89
2022-08-23T11:02:23.949Z,25.81
2022-08-23T11:05:06.994Z,25.65
2022-08-23T11:07:35.338Z,25.83
2022-08-23T11:10:17.423Z,25.60
2022-08-23T11:12:58.996Z,26.06
2022-08-23T11:15:34.262Z,26.39
2022-08-23T11:18:04.196Z,26.51
2022-08-23T11:21:34.148Z,26.56
2022-08-23T11:24:39.025Z,25.97
2022-08-23T11:27:07.692Z,26.77
2022-08-23T11:29:43.416Z,26.82
2022-08-23T11:32:40.243Z,27.04
2022-08-23T11:35:32.966Z,26.85
2022-08-23T11:38:04.317Z,27.17
2022-08-23T11:41:22.747Z,27.90
2022-08-23T11:43:49.666Z,27.55
2022-08-23T11:46:36.089Z,27.78
2022-08-23T11:49:55.682Z,27.21
2022-08-23T11:52:51.183Z,26.65
2022-08-23T11:55:52.802Z,27.42
2022-08-23T11:58:25.063Z,27.65
2022-08-23T12:01:07.642Z,27.57
2022-08-23T12:03:37.126Z,27.73
2022-08-23T12:06:16.740Z,27.94
2022-08-23T12:08:53.804Z,28.02
2022-08-23T12:11:20.215Z,27.93
2022-08-23T12:13:55.549Z,28.53
2022-08-23T12:16:44.322Z,28.81
2022-08-23T12:19:30.509Z,28.29
2022-08-23T12:21:57.905Z,28.51
2022-08-23T12:24:27.805Z,28.77
2022-08-23T12:27:04.781Z,27.95
2022-08-23T12:30:00.008Z,28.01
2022-08-23T12:32:36.559Z,27.64
2022-08-23T12:35:20.086Z,27.64
2022-08-23T12:37:52.232Z,27.30
2022-08-23T12:40:23.996Z,27.35
2022-08-23T12:42:48.120Z,27.92
2022-08-23T12:45:19.446Z,28.12
2022-08-23T12:47:45.444Z,27.48
2022-08-23T12:50:32.953Z,27.10
2022-08-23T12:53:01.271Z,26.72
2022-08-23T12:55:25.221Z,26.89
2022-08-23T12:57:56.531Z,27.28
2022-08-23T13:00:25.491Z,27.94
2022-08-23T13:02:56.893Z,28.08
2022-08-23T13:05:33.943Z,28.30
2022-08-23T13:07:59.540Z,28.06
2022-08-23T13:10:23.644Z,28.26
2022-08-23T13:12:47.523Z,27.10
2022-08-23T13:15:14.215Z,27.05
2022-08-23T13:17:41.071Z,27.54
2022-08-23T13:20:24.422Z,27.25
2022-08-23T13:23:04.110Z,28.00
2022-08-23T13:25:32.705Z,27.80
2022-08-23T13:27:59.606Z,26.55
2022-08-23T13:30:26.667Z,26.31
2022-08-23T13:32:52.151Z,26.07
2022-08-23T13:35:36.629Z,26.81
2022-08-23T13:38:10.834Z,26.81
2022-08-23T13:40:43.778Z,26.61
2022-08-23T13:43:11.867Z,26.88
2022-08-23T13:45:38.084Z,27.05
2022-08-23T13:48:08.883Z,27.04
2022-08-23T13:50:36.783Z,26.78
2022-08-23T13:53:14.386Z,27.30
2022-08-23T13:55:46.219Z,27.95
2022-08-23T13:58:13.397Z,27.76
2022-08-23T14:00:37.876Z,28.03
2022-08-23T14:03:01.700Z,27.93
2022-08-23T14:05:25.546Z,27.97
2022-08-23T14:07:53.004Z,28.00
2022-08-23T14:10:18.313Z,27.61
2022-08-23T14:12:44.958Z,27.54
2022-08-23T14:15:10.110Z,27.49
2022-08-23T14:17:41.709Z,27.61
2022-08-23T14:22:52.960Z,27.51
2022-08-23T14:25:16.896Z,27.37
2022-08-23T14:27:42.567Z,28.07
2022-08-23T14:30:08.495Z,27.40
2022-08-23T14:32:32.398Z,27.39
2022-08-23T14:34:56.075Z,26.82
2022-08-23T14:38:00.439Z,26.37
2022-08-23T14:40:06.898Z,26.40
2022-08-23T14:42:31.830Z,26.69
2022-08-23T14:44:55.531Z,26.19
2022-08-23T14:47:19.515Z,26.34
2022-08-23T14:49:43.323Z,26.82
2022-08-23T14:52:07.323Z,27.08
2022-08-23T14:54:31.928Z,26.30
2022-08-23T14:56:57.080Z,26.31
2022-08-23T14:59:20.880Z,26.80
2022-08-23T15:01:45.148Z,26.63
2022-08-23T15:04:10.043Z,26.54
2022-08-23T15:06:33.792Z,26.69
2022-08-23T15:08:57.567Z,26.86
2022-08-23T15:14:06.903Z,26.43
2022-08-23T15:16:30.955Z,26.35
2022-08-23T15:18:55.015Z,26.47
2022-08-23T15:21:19.511Z,26.33
2022-08-23T15:23:43.400Z,26.83
2022-08-23T15:26:08.199Z,27.07
2022-08-23T15:28:32.209Z,26.78
2022-08-23T15:30:58.059Z,26.83
2022-08-23T15:33:27.164Z,26.76
2022-08-23T15:35:55.548Z,26.76
2022-08-23T15:38:20.598Z,26.71
2022-08-23T15:40:45.215Z,26.97
2022-08-23T15:43:08.924Z,26.09
2022-08-23T15:45:33.859Z,26.17
2022-08-23T15:48:01.243Z,26.41
2022-08-23T15:50:31.061Z,26.45
2022-08-23T15:52:55.244Z,26.43
2022-08-23T15:55:19.756Z,26.50
2022-08-23T15:57:46.839Z,26.40
2022-08-23T16:00:13.005Z,26.15
2022-08-23T16:02:57.347Z,26.25
2022-08-23T16:05:22.243Z,25.98
2022-08-23T16:07:46.423Z,25.90
2022-08-23T16:10:13.003Z,25.87
2022-08-23T16:12:36.723Z,26.24
2022-08-23T16:15:00.443Z,26.01
2022-08-23T16:17:24.275Z,26.00
2022-08-23T16:19:48.964Z,25.73
2022-08-23T16:22:14.790Z,26.05
2022-08-23T16:24:38.531Z,25.81
2022-08-23T16:27:02.183Z,25.84
2022-08-23T16:29:27.346Z,25.55
2022-08-23T16:31:51.915Z,25.52
2022-08-23T16:34:18.415Z,25.63
2022-08-23T16:36:45.562Z,25.71
2022-08-23T16:39:12.831Z,25.70
2022-08-23T16:41:36.776Z,25.56
2022-08-23T16:44:00.727Z,25.59
2022-08-23T16:46:25.845Z,25.60
2022-08-23T16:48:49.940Z,25.47
2022-08-23T16:51:14.138Z,25.14
2022-08-23T16:53:38.508Z,25.58
2022-08-23T16:56:03.699Z,25.33
2022-08-23T16:58:27.512Z,25.45
2022-08-23T17:00:51.553Z,25.24
2022-08-23T17:03:15.610Z,25.40
2022-08-23T17:05:39.350Z,25.45
2022-08-23T17:08:03.472Z,25.34
2022-08-23T17:10:27.524Z,25.25
2022-08-23T17:12:55.584Z,24.97
2022-08-23T17:15:25.075Z,25.09
2022-08-23T17:17:49.104Z,25.07
2022-08-23T17:20:14.638Z,24.80
2022-08-23T17:22:38.640Z,24.56
2022-08-23T17:25:02.276Z,24.65
2022-08-23T17:27:26.231Z,24.45
2022-08-23T17:29:51.667Z,24.72
2022-08-23T17:32:18.451Z,24.55
2022-08-23T17:34:42.082Z,24.57
2022-08-23T17:37:06.431Z,24.65
2022-08-23T17:39:32.273Z,24.61
2022-08-23T17:41:59.638Z,24.42
2022-08-23T17:44:23.697Z,24.22
2022-08-23T17:46:49.243Z,24.20
2022-08-23T17:49:14.246Z,24.11
2022-08-23T17:51:41.051Z,24.11
2022-08-23T17:54:05.023Z,24.00
2022-08-23T17:56:29.079Z,24.11
2022-08-23T17:58:53.010Z,24.01
2022-08-23T18:01:16.826Z,24.11
2022-08-23T18:03:42.501Z,23.81
2022-08-23T18:06:16.835Z,23.83
2022-08-23T18:08:41.139Z,23.86
2022-08-23T18:11:05.023Z,23.85
2022-08-23T18:13:28.762Z,23.78
2022-08-23T18:15:52.664Z,23.74
2022-08-23T18:18:16.472Z,23.57
2022-08-23T18:20:41.544Z,23.53
2022-08-23T18:23:06.011Z,23.49
2022-08-23T18:25:30.111Z,23.44
2022-08-23T18:28:08.537Z,23.33
2022-08-23T18:30:32.442Z,23.30
2022-08-23T18:32:56.396Z,23.17
2022-08-23T18:35:20.239Z,23.08
2022-08-23T18:37:46.108Z,23.04
2022-08-23T18:40:11.896Z,22.93
2022-08-23T18:42:36.038Z,22.83
2022-08-23T18:44:59.747Z,22.81
2022-08-23T18:47:23.356Z,22.66
2022-08-23T18:49:47.014Z,22.60
2022-08-23T18:52:10.782Z,22.50
2022-08-23T18:54:36.546Z,22.46
2022-08-23T18:57:00.655Z,22.34
2022-08-23T18:59:24.520Z,22.32
2022-08-23T19:01:48.532Z,22.22
2022-08-23T19:04:14.416Z,22.17
2022-08-23T19:06:38.833Z,22.02
2022-08-23T19:09:02.564Z,21.99
2022-08-23T19:11:28.234Z,21.90
2022-08-23T19:13:52.217Z,21.87
2022-08-23T19:16:17.125Z,21.83
2022-08-23T19:18:41.211Z,21.78
2022-08-23T19:21:06.475Z,21.58
2022-08-23T19:23:30.211Z,21.53
2022-08-23T19:25:53.907Z,21.49
2022-08-23T19:28:19.991Z,21.41
2022-08-23T19:30:44.267Z,21.33
2022-08-23T19:33:08.131Z,21.32
2022-08-23T19:35:32.108Z,21.31
2022-08-23T19:37:55.855Z,21.21
2022-08-23T19:40:20.373Z,21.21
2022-08-23T19:42:44.160Z,21.15
2022-08-23T19:45:10.981Z,21.05
2022-08-23T19:47:35.035Z,20.76
2022-08-23T19:49:59.912Z,20.88
2022-08-23T19:52:23.627Z,20.80
2022-08-23T19:54:47.667Z,20.66
2022-08-23T19:57:11.379Z,20.62
2022-08-23T19:59:40.278Z,20.61
2022-08-23T20:02:05.795Z,20.58
2022-08-23T20:04:32.261Z,20.50
2022-08-23T20:06:57.631Z,20.46
2022-08-23T20:09:23.416Z,20.40
2022-08-23T20:11:47.409Z,20.37
2022-08-23T20:14:11.688Z,20.28
2022-08-23T20:16:36.652Z,20.27
2022-08-23T20:19:04.039Z,20.24
2022-08-23T20:21:28.586Z,20.18
2022-08-23T20:24:04.173Z,20.03
2022-08-23T20:26:29.099Z,20.08
2022-08-23T20:28:59.670Z,20.01
2022-08-23T20:31:28.201Z,19.96
2022-08-23T20:33:53.137Z,19.94
2022-08-23T20:36:20.356Z,19.91
2022-08-23T20:38:44.114Z,19.87
2022-08-23T20:41:08.504Z,19.86
2022-08-23T20:43:32.811Z,19.80
2022-08-23T20:45:57.451Z,19.77
2022-08-23T20:48:21.414Z,19.72
2022-08-23T20:50:45.155Z,19.70
2022-08-23T20:53:12.819Z,19.60
2022-08-23T20:55:36.544Z,19.61
2022-08-23T20:58:00.841Z,19.51
2022-08-23T21:00:24.683Z,19.47
2022-08-23T21:02:48.529Z,19.45
2022-08-23T21:05:12.398Z,19.43
2022-08-23T21:07:36.837Z,19.37
2022-08-23T21:10:02.188Z,19.27
2022-08-23T21:12:26.001Z,19.23
2022-08-23T21:14:50.595Z,19.20
2022-08-23T21:17:14.412Z,19.11
2022-08-23T21:19:38.257Z,19.08
2022-08-23T21:22:02.019Z,19.03
2022-08-23T21:24:26.307Z,19.00
2022-08-23T21:26:52.032Z,18.98
2022-08-23T21:29:15.958Z,18.91
2022-08-23T21:31:40.614Z,18.83
2022-08-23T21:34:04.570Z,18.81
2022-08-23T21:36:29.146Z,18.81
2022-08-23T21:38:52.870Z,18.77
2022-08-23T21:41:34.980Z,18.72
2022-08-23T21:44:00.131Z,18.66
2022-08-23T21:46:24.517Z,18.65
2022-08-23T21:48:48.259Z,18.60
2022-08-23T21:51:11.862Z,18.53
2022-08-23T21:53:35.559Z,18.53
2022-08-23T21:55:59.126Z,18.47
2022-08-23T21:58:22.919Z,18.44
2022-08-23T22:00:47.978Z,18.40
2022-08-23T22:03:12.034Z,18.37
2022-08-23T22:05:40.875Z,18.32
2022-08-23T22:08:05.103Z,18.35
2022-08-23T22:10:28.791Z,18.26
2022-08-23T22:12:52.827Z,18.26
2022-08-23T22:15:17.556Z,18.21
2022-08-23T22:17:42.644Z,18.19
2022-08-23T22:20:08.699Z,18.19
2022-08-23T22:22:33.282Z,18.15
2022-08-23T22:24:57.740Z,18.10
2022-08-23T22:27:22.339Z,18.04
2022-08-23T22:29:46.780Z,18.01
2022-08-23T22:32:10.529Z,17.96
2022-08-23T22:34:35.783Z,17.98
2022-08-23T22:36:59.691Z,17.91
2022-08-23T22:39:25.282Z,17.90
2022-08-23T22:41:48.986Z,17.90
2022-08-23T22:44:12.644Z,17.70
2022-08-23T22:46:37.044Z,17.76
2022-08-23T22:49:01.165Z,17.77
2022-08-23T22:51:28.851Z,17.71
2022-08-23T22:53:56.028Z,17.76
2022-08-23T22:56:22.933Z,17.67
2022-08-23T22:58:47.774Z,17.60
2022-08-23T23:01:20.931Z,17.58
2022-08-23T23:03:44.906Z,17.44
2022-08-23T23:06:08.655Z,17.48
2022-08-23T23:08:33.703Z,17.45
2022-08-23T23:11:00.171Z,17.47
2022-08-23T23:13:25.455Z,17.44
2022-08-23T23:15:50.184Z,17.43
2022-08-23T23:18:13.948Z,17.41
2022-08-23T23:20:40.281Z,17.36
2022-08-23T23:23:03.979Z,17.37
2022-08-23T23:25:29.063Z,17.30
2022-08-23T23:27:55.409Z,17.29
2022-08-23T23:30:22.872Z,17.29
2022-08-23T23:32:46.619Z,17.25
2022-08-23T23:35:11.453Z,17.30
2022-08-23T23:37:35.219Z,17.29
2022-08-23T23:39:59.230Z,17.25
2022-08-23T23:42:24.299Z,17.26
2022-08-23T23:44:48.047Z,17.24
2022-08-23T23:47:11.815Z,17.18
2022-08-23T23:49:35.551Z,17.20
2022-08-23T23:51:59.138Z,17.16
2022-08-23T23:54:22.899Z,17.03
2022-08-23T23:56:48.224Z,17.08
2022-08-23T23:59:13.414Z,17.10
